Airfield :
LOGIN :

Register | Disclaimer

   EN    FR    IT 

 










Legend :    VFR   Marginal VFR   IFR   Intensive IFR   Very Intensive IFR
Visi :
Ceiling :
>= 8 km
>= 3000ft
5 to 8 km
1000 to 3000 ft
1500m to 5 km
500 to 1000 ft
800 to 1500m
200 to 500 ft
< 800m
< 200 ft
Symbols :   Thunderstorms  Fog  Heavy snow  Heavy precipitations  Wind > 20 kt
SIGMETs :     Misc.  Thunderstorms  Icing  Turbulence  Mountain Waves  Volcanic Ashes







- Airport Elevation : 1273 ft
- IATA code : LJU


LJLJ - Ljubljana

CURRENT METAR :
  • 181800Z 29001KT 9999 SCT045 BKN070 03/M01 Q1017 NOSIG

EXPIRED METARs :
  • 181730Z VRB01KT 9999 FEW037 BKN050 03/M01 Q1017 NOSIG
  • 181700Z 22002KT 9999 FEW037 BKN050 03/M01 Q1018 NOSIG
  • 181630Z 19002KT 9999 FEW037 BKN050 02/M01 Q1018 NOSIG
  • 181600Z VRB01KT 9999 FEW037 BKN050 02/M00 Q1018 NOSIG
  • 181530Z 20003KT 170V240 9999 FEW037 BKN045 03/M00 Q1018 NOSIG
  • 181500Z VRB02KT 9999 FEW037 BKN045 03/M00 Q1019 NOSIG

TAF TAF LJLJ
Valid from the 18 at 18:00 until the 19 at 18:00 UTC


181700Z 1818/1918 12004KT 9999 BKN045
BECMG 1818/1821 7000 OVC030
TEMPO 1900/1918 3500 -SN BR SCT010 OVC020
No reported NOTAMs for that airfield.



MET'MAP, your aeronautical weather chart ! - Copyright ORBIFLY December 2007 - Disclaimer

ORBIFLY MET'MAP TEAM :

Programming & Development : Alexandra Zaïnal
Concept & Development : Baudouin d'Aumeries
Co-Development & Prog : Marc-Olivier Méhu
Technical & hardware support : Manuel Goepfert

Contact : metmap@orbifly.com




SOURCES & CREDITS :

   NOAA